Time;durP1;ratioP1;P1;durP2;ratioP2;P2;SDS_P1;SDS_P2;PMS_P1;PMS_P2;Temp;Humidity;BMP_temperature;BMP_pressure;BME280_temperature;BME280_humidity;BME280_pressure;Samples;Min_cycle;Max_cycle;Signal;HPM_P1;HPM_P2
2022/02/07 00:01:04;;;;;;;20.42;2.80;;;;;;;4.44;76.92;100721.75;5038295;28;20392;-73
2022/02/07 00:05:55;;;;;;;29.85;2.92;;;;;;;4.59;76.42;100733.03;5056128;28;20163;-73
2022/02/07 00:08:20;;;;;;;19.88;2.33;;;;;;;4.61;75.89;100741.38;5056637;28;20017;-73
2022/02/07 00:10:46;;;;;;;16.88;1.80;;;;;;;4.61;76.21;100735.47;5056609;28;20024;-73
2022/02/07 00:13:11;;;;;;;17.25;2.05;;;;;;;4.62;75.60;100744.75;5056034;28;20040;-72
2022/02/07 00:15:37;;;;;;;15.35;2.70;;;;;;;4.57;75.06;100765.66;5055824;28;20565;-73
2022/02/07 00:18:04;;;;;;;17.88;2.00;;;;;;;4.57;76.19;100768.22;5056216;28;20155;-73
2022/02/07 00:20:29;;;;;;;10.77;2.00;;;;;;;4.67;75.30;100816.78;5037818;28;20033;-73
2022/02/07 00:22:55;;;;;;;11.68;2.15;;;;;;;4.55;75.24;100841.81;5055865;28;20036;-72
2022/02/07 00:25:21;;;;;;;7.47;0.85;;;;;;;4.14;77.22;100848.25;5055804;28;20023;-73
2022/02/07 00:27:47;;;;;;;7.90;1.42;;;;;;;3.93;79.08;100862.06;5037852;28;20464;-73
2022/02/07 00:30:16;;;;;;;6.60;1.55;;;;;;;3.86;82.25;100855.94;5055713;28;20052;-73
2022/02/07 00:32:41;;;;;;;16.45;1.88;;;;;;;3.81;83.55;100866.56;5055656;28;20074;-73
2022/02/07 00:35:13;;;;;;;10.75;1.60;;;;;;;3.80;83.85;100872.63;5055697;28;20021;-73
2022/02/07 00:37:41;;;;;;;7.70;1.15;;;;;;;3.61;84.08;100878.59;5037692;28;20039;-73
2022/02/07 00:42:59;;;;;;;13.27;1.88;;;;;;;3.55;84.42;100886.03;5056332;28;20149;-73
2022/02/07 00:48:00;;;;;;;10.43;1.90;;;;;;;3.28;85.12;100864.56;5056024;28;20033;-73
2022/02/07 00:50:27;;;;;;;17.85;2.10;;;;;;;3.45;82.04;100901.34;5037442;28;20029;-73
2022/02/07 00:52:52;;;;;;;11.73;1.70;;;;;;;3.47;81.64;100901.22;5055206;28;20102;-73
2022/02/07 00:55:17;;;;;;;11.00;1.63;;;;;;;3.51;81.31;100917.88;5055248;28;20179;-73
2022/02/07 00:57:43;;;;;;;10.90;1.33;;;;;;;3.50;81.93;100919.63;5055280;28;20090;-74
2022/02/07 01:00:10;;;;;;;23.77;2.03;;;;;;;3.55;81.67;100909.03;5055427;28;20032;-73
2022/02/07 01:02:36;;;;;;;12.35;1.90;;;;;;;3.50;81.08;100914.53;5055044;28;20028;-73
2022/02/07 01:05:01;;;;;;;16.20;2.03;;;;;;;3.54;80.79;100920.16;5037321;28;20446;-73
2022/02/07 01:07:27;;;;;;;12.13;2.08;;;;;;;3.54;81.75;100931.22;5055042;28;20028;-72
2022/02/07 01:09:54;;;;;;;13.27;2.67;;;;;;;3.64;81.05;100938.84;5055005;28;20096;-73
2022/02/07 01:12:37;;;;;;;13.15;2.45;;;;;;;3.68;80.46;100939.38;5054959;28;20488;-74
2022/02/07 01:23:09;;;;;;;15.10;1.92;;;;;;;3.87;78.88;100985.34;5055637;28;20095;-73
2022/02/07 01:55:07;;;;;;;16.67;2.40;;;;;;;4.02;81.02;101116.16;5054360;28;20037;-73
2022/02/07 01:57:33;;;;;;;;;;;;;;;3.98;79.34;101125.03;5054994;28;20031;-74
2022/02/07 01:59:58;;;;;;;10.15;2.05;;;;;;;4.08;79.10;101138.63;5054279;28;20011;-73
2022/02/07 02:02:23;;;;;;;19.38;2.75;;;;;;;4.10;79.18;101146.16;5053958;28;20542;-73
2022/02/07 02:04:49;;;;;;;18.58;2.30;;;;;;;4.09;80.19;101165.03;5036072;28;20040;-73
2022/02/07 02:07:15;;;;;;;17.05;2.63;;;;;;;4.13;78.97;101159.50;5054232;28;20028;-73
2022/02/07 02:09:41;;;;;;;14.85;2.30;;;;;;;4.25;78.05;101157.59;5053853;28;20025;-74
2022/02/07 02:12:07;;;;;;;24.52;2.72;;;;;;;4.30;77.30;101179.28;5035915;28;20059;-74
2022/02/07 02:14:46;;;;;;;17.92;2.65;;;;;;;4.15;78.68;101144.81;5054268;28;20071;-74
2022/02/07 02:17:34;;;;;;;19.58;2.28;;;;;;;4.39;77.87;101198.13;5053587;28;20049;-73
2022/02/07 02:20:53;;;;;;;17.95;2.92;;;;;;;4.40;78.45;101198.91;5053429;28;20444;-73
2022/02/07 02:37:16;;;;;;;18.98;2.75;;;;;;;4.59;76.57;101242.41;5022545;28;20035;-73
2022/02/07 02:47:17;;;;;;;17.95;3.38;;;;;;;4.56;75.87;101272.59;5053914;28;20036;-73
2022/02/07 02:49:48;;;;;;;22.10;2.45;;;;;;;4.54;76.24;101275.28;5053610;28;20029;-73
2022/02/07 02:52:13;;;;;;;22.73;2.78;;;;;;;4.49;76.44;101282.59;5053330;28;20168;-73
2022/02/07 02:54:38;;;;;;;19.08;2.55;;;;;;;4.57;76.12;101287.81;5053225;28;20143;-73
2022/02/07 02:57:04;;;;;;;22.35;3.30;;;;;;;4.53;77.21;101297.53;5053228;28;20070;-73
2022/02/07 02:59:29;;;;;;;28.70;3.83;;;;;;;4.52;76.59;101297.69;5035252;28;20037;-73
2022/02/07 03:01:54;;;;;;;21.65;2.72;;;;;;;4.58;76.25;101292.00;5053227;28;20017;-73
2022/02/07 03:04:20;;;;;;;20.83;2.75;;;;;;;4.51;76.06;101308.84;5037315;28;20467;-72
2022/02/07 03:06:48;;;;;;;20.58;2.75;;;;;;;4.53;76.12;101309.53;5057198;28;20020;-73
2022/02/07 03:09:15;;;;;;;17.27;2.47;;;;;;;4.49;75.41;101320.97;5039275;28;20021;-73
2022/02/07 03:11:40;;;;;;;19.77;2.33;;;;;;;4.46;76.07;101329.72;5057239;28;20032;-73
2022/02/07 03:14:06;;;;;;;18.48;2.67;;;;;;;4.51;75.29;101330.13;5057681;28;20025;-72
2022/02/07 03:16:38;;;;;;;22.05;3.20;;;;;;;4.60;74.58;101343.06;5056888;28;20049;-73
2022/02/07 03:19:04;;;;;;;16.10;2.38;;;;;;;4.54;75.23;101336.72;5039173;28;20040;-73
2022/02/07 03:21:30;;;;;;;20.35;2.47;;;;;;;4.74;75.04;101353.72;5057540;28;20029;-72
2022/02/07 03:23:55;;;;;;;21.35;3.00;;;;;;;4.83;74.89;101354.66;5057309;28;20028;-73
2022/02/07 03:26:21;;;;;;;15.70;2.70;;;;;;;4.75;75.49;101377.59;5057083;28;20468;-73
2022/02/07 03:28:48;;;;;;;22.40;2.42;;;;;;;4.89;74.24;101377.19;5056882;28;20364;-73
2022/02/07 03:31:18;;;;;;;17.90;2.55;;;;;;;4.90;74.07;101375.44;5038975;28;20028;-72
2022/02/07 03:33:44;;;;;;;14.75;2.03;;;;;;;4.95;74.53;101381.75;5057105;28;20025;-73
2022/02/07 03:36:11;;;;;;;15.15;2.90;;;;;;;4.92;74.89;101387.16;5056722;28;20025;-73
2022/02/07 03:38:36;;;;;;;22.95;2.97;;;;;;;4.96;73.48;101397.94;5056650;28;20025;-73
2022/02/07 03:41:02;;;;;;;19.77;3.08;;;;;;;4.96;74.24;101414.09;5056590;28;20056;-73
2022/02/07 03:43:28;;;;;;;23.77;2.60;;;;;;;5.01;74.75;101407.78;5056642;28;20391;-73
2022/02/07 03:45:53;;;;;;;16.08;2.47;;;;;;;5.01;74.52;101426.53;5056516;28;20128;-73
2022/02/07 03:48:18;;;;;;;14.32;2.70;;;;;;;4.89;73.68;101407.09;5056365;28;20032;-73
2022/02/07 03:50:43;;;;;;;20.25;2.85;;;;;;;5.04;75.51;101440.81;5056685;28;20021;-73
2022/02/07 03:53:09;;;;;;;19.27;2.60;;;;;;;5.04;75.45;101445.94;5056709;28;20082;-73
2022/02/07 03:55:34;;;;;;;16.77;2.60;;;;;;;5.06;75.10;101449.97;5038812;28;20020;-73
2022/02/07 03:58:00;;;;;;;23.75;2.92;;;;;;;5.07;75.29;101466.16;5038443;28;20031;-73
2022/02/07 04:00:26;;;;;;;19.25;2.75;;;;;;;5.11;75.63;101473.44;5056089;28;20060;-73
2022/02/07 04:02:53;;;;;;;25.10;3.17;;;;;;;5.10;75.22;101483.84;5038388;28;20032;-73
2022/02/07 04:07:43;;;;;;;29.67;3.58;;;;;;;5.18;75.09;101497.59;5056712;28;20086;-73
2022/02/07 04:10:09;;;;;;;26.83;3.88;;;;;;;5.18;75.38;101502.72;5056032;28;20017;-73
2022/02/07 04:12:35;;;;;;;21.38;2.90;;;;;;;5.22;75.41;101520.38;5056079;28;20103;-73
2022/02/07 04:15:01;;;;;;;19.02;2.67;;;;;;;5.11;76.10;101529.81;5055853;28;20032;-73
2022/02/07 04:17:29;;;;;;;21.35;2.60;;;;;;;5.06;76.69;101543.94;5055966;28;20048;-73
2022/02/07 04:19:59;;;;;;;22.63;2.83;;;;;;;5.03;77.20;101555.25;5056410;28;20495;-72
2022/02/07 04:22:28;;;;;;;15.80;2.75;;;;;;;4.97;77.20;101554.03;5055822;28;20079;-73
2022/02/07 04:24:54;;;;;;;17.02;2.53;;;;;;;4.91;77.12;101557.13;5037942;28;20094;-73
2022/02/07 04:27:19;;;;;;;22.05;2.40;;;;;;;4.90;78.21;101568.31;5055794;28;20032;-73
2022/02/07 04:29:44;;;;;;;19.85;2.33;;;;;;;4.88;77.92;101577.88;5037833;28;20082;-73
2022/02/07 04:32:10;;;;;;;16.67;2.30;;;;;;;4.92;77.25;101576.69;5055648;28;20013;-73
2022/02/07 04:34:38;;;;;;;14.07;2.50;;;;;;;4.96;77.52;101575.47;5037777;28;20017;-73
2022/02/07 04:37:04;;;;;;;21.05;3.03;;;;;;;5.01;78.44;101585.34;5037726;28;20387;-72
2022/02/07 04:39:29;;;;;;;24.90;2.88;;;;;;;5.06;78.69;101584.94;5037562;28;20021;-72
2022/02/07 04:41:56;;;;;;;18.50;2.95;;;;;;;5.07;77.96;101589.16;5055822;28;20024;-73
2022/02/07 04:44:28;;;;;;;22.30;2.72;;;;;;;5.06;77.79;101600.31;5037479;28;20081;-73
2022/02/07 04:47:20;;;;;;;15.18;2.83;;;;;;;5.10;77.85;101615.31;5055761;28;20151;-73
2022/02/07 04:55:10;;;;;;;16.15;2.67;;;;;;;5.17;78.42;101631.75;5055237;28;20067;-72
2022/02/07 05:00:11;;;;;;;22.23;2.80;;;;;;;5.24;78.50;101655.13;5055110;28;20107;-72
2022/02/07 05:03:02;;;;;;;20.63;2.85;;;;;;;5.25;77.84;101666.19;5055183;28;20029;-72
2022/02/07 05:16:16;;;;;;;16.50;2.70;;;;;;;5.08;78.69;101703.47;5055136;28;19924;-72
2022/02/07 05:18:41;;;;;;;19.77;2.83;;;;;;;5.02;79.66;101709.94;5054786;28;20025;-73
2022/02/07 05:21:06;;;;;;;16.15;2.83;;;;;;;4.94;79.39;101725.91;5036828;28;20051;-73
2022/02/07 05:23:32;;;;;;;19.80;3.55;;;;;;;4.90;80.19;101734.00;5054757;28;20025;-73
2022/02/07 05:25:57;;;;;;;23.05;2.90;;;;;;;4.92;81.22;101725.25;5054290;28;20017;-73
2022/02/07 05:28:22;;;;;;;19.58;2.65;;;;;;;4.87;81.04;101734.25;5054353;28;20108;-72
2022/02/07 05:30:48;;;;;;;18.23;2.88;;;;;;;4.90;81.17;101732.25;5036699;28;20466;-73
2022/02/07 05:33:13;;;;;;;23.58;2.95;;;;;;;4.80;80.66;101741.63;5055050;28;20025;-74
2022/02/07 05:35:38;;;;;;;18.23;2.58;;;;;;;4.80;81.51;101749.28;5054498;28;20051;-73
2022/02/07 05:38:07;;;;;;;25.50;3.05;;;;;;;4.74;82.17;101749.81;5054405;28;20453;-74
2022/02/07 05:40:52;;;;;;;25.33;3.13;;;;;;;4.82;81.44;101760.22;5054218;28;20025;-73
2022/02/07 05:43:18;;;;;;;24.88;2.88;;;;;;;4.84;82.32;101765.25;5054419;28;20029;-73
2022/02/07 05:45:43;;;;;;;24.88;2.85;;;;;;;4.89;82.22;101775.91;5054293;28;20384;-73
2022/02/07 05:48:09;;;;;;;25.13;2.85;;;;;;;4.97;81.48;101774.34;5054204;28;20021;-73
2022/02/07 05:50:34;;;;;;;21.75;2.97;;;;;;;5.05;80.77;101772.91;5054408;28;20372;-72
2022/02/07 05:52:59;;;;;;;20.98;3.00;;;;;;;5.08;81.90;101776.03;5054182;28;20500;-72
2022/02/07 05:55:26;;;;;;;18.17;2.85;;;;;;;5.00;81.39;101793.78;5054103;28;20037;-73
2022/02/07 05:57:51;;;;;;;35.20;3.95;;;;;;;4.94;81.51;101791.72;5054023;28;20017;-73
2022/02/07 06:00:17;;;;;;;24.35;3.30;;;;;;;5.02;81.78;101798.78;5053812;28;20055;-72
2022/02/07 06:02:43;;;;;;;23.65;2.97;;;;;;;5.05;82.02;101804.47;5053867;28;20033;-73
2022/02/07 06:05:08;;;;;;;25.15;2.83;;;;;;;5.13;81.64;101809.78;5053869;28;20029;-73
2022/02/07 06:07:33;;;;;;;24.48;2.72;;;;;;;5.06;81.42;101797.59;5036081;28;20033;-73
2022/02/07 06:09:59;;;;;;;26.35;3.20;;;;;;;5.22;81.40;101813.34;5054120;28;20375;-73
2022/02/07 06:12:24;;;;;;;29.48;3.13;;;;;;;5.25;81.75;101819.97;5053704;28;20025;-72
2022/02/07 06:14:51;;;;;;;30.45;3.22;;;;;;;5.15;82.37;101822.44;5053767;28;20033;-73
2022/02/07 06:17:16;;;;;;;30.75;3.47;;;;;;;5.21;81.75;101834.78;5032390;28;20552;-72
2022/02/07 06:19:42;;;;;;;23.15;3.85;;;;;;;5.02;80.96;101811.59;5033696;28;20112;-73
2022/02/07 06:22:07;;;;;;;23.30;2.97;;;;;;;5.27;81.60;101841.16;5033754;28;20380;-72
2022/02/07 06:24:32;;;;;;;28.55;4.68;;;;;;;5.15;80.85;101845.50;5033950;28;20103;-73
2022/02/07 06:26:57;;;;;;;25.27;3.65;;;;;;;4.96;81.98;101847.03;5032464;28;20424;-73
2022/02/07 06:29:23;;;;;;;26.85;4.05;;;;;;;4.93;82.40;101841.34;5032345;28;20024;-73
2022/02/07 06:31:49;;;;;;;25.45;4.40;;;;;;;4.93;82.55;101854.16;5033633;28;20112;-72
2022/02/07 06:34:14;;;;;;;27.13;5.07;;;;;;;4.86;82.76;101864.06;5032470;28;20072;-73
2022/02/07 06:36:39;;;;;;;25.35;5.22;;;;;;;4.81;83.24;101873.88;5033541;28;20037;-73
2022/02/07 06:39:05;;;;;;;19.65;3.97;;;;;;;4.81;82.81;101873.06;5032859;28;20076;-73
2022/02/07 06:41:30;;;;;;;34.22;4.18;;;;;;;4.81;83.03;101888.44;5032218;28;20021;-73
2022/02/07 06:43:56;;;;;;;23.50;3.10;;;;;;;4.77;83.19;101885.28;5033450;28;20419;-73
2022/02/07 06:46:21;;;;;;;27.13;3.47;;;;;;;4.72;83.44;101879.72;5033300;28;20025;-73
2022/02/07 06:48:46;;;;;;;23.30;3.40;;;;;;;4.70;83.32;101881.59;5032116;28;20036;-72
2022/02/07 06:51:12;;;;;;;23.45;3.60;;;;;;;4.68;83.55;101893.69;5032076;28;20494;-72
2022/02/07 06:53:37;;;;;;;33.97;4.35;;;;;;;4.69;84.48;101897.88;5033259;28;20053;-73
2022/02/07 06:56:04;;;;;;;22.65;3.72;;;;;;;4.58;84.06;101900.50;5033346;28;20380;-73
2022/02/07 06:58:29;;;;;;;23.05;3.30;;;;;;;4.60;83.96;101916.53;5033632;28;20029;-72
2022/02/07 07:00:55;;;;;;;25.40;4.15;;;;;;;4.64;83.36;101923.03;5031911;28;20116;-74
2022/02/07 07:03:21;;;;;;;24.70;3.70;;;;;;;4.70;83.51;101928.50;5031957;28;20041;-74
2022/02/07 07:05:50;;;;;;;25.33;3.22;;;;;;;4.68;82.72;101929.53;5033372;28;20049;-74
2022/02/07 07:08:16;;;;;;;26.50;2.95;;;;;;;4.85;83.35;101949.53;5032425;28;20053;-72
2022/02/07 07:10:41;;;;;;;26.27;3.05;;;;;;;4.80;83.26;101945.69;5032862;28;20045;-73
2022/02/07 07:13:11;;;;;;;24.08;3.28;;;;;;;4.84;82.46;101954.78;5033114;28;20021;-73
2022/02/07 07:15:50;;;;;;;21.60;3.22;;;;;;;4.84;83.53;101965.84;5033311;28;20052;-71
2022/02/07 07:18:17;;;;;;;22.15;3.17;;;;;;;4.92;83.79;101975.47;5053438;28;20021;-73
2022/02/07 07:20:43;;;;;;;24.73;3.72;;;;;;;5.00;83.29;101990.25;5052848;28;20029;-72
2022/02/07 07:23:11;;;;;;;28.65;3.72;;;;;;;5.08;84.19;101998.13;5051109;28;20052;-72
2022/02/07 07:25:40;;;;;;;20.45;3.35;;;;;;;5.08;83.09;101993.00;5050917;28;20049;-72
2022/02/07 07:28:09;;;;;;;26.20;3.88;;;;;;;5.24;83.62;102024.19;5032684;28;20024;-71
2022/02/07 07:30:40;;;;;;;26.35;3.53;;;;;;;5.40;83.40;102031.47;5050716;28;20135;-71
2022/02/07 07:33:10;;;;;;;27.40;3.00;;;;;;;5.37;85.25;102045.34;5050774;28;20383;-74
2022/02/07 07:35:36;;;;;;;20.33;2.97;;;;;;;5.38;85.04;102056.41;5033172;28;20056;-72
2022/02/07 07:38:01;;;;;;;24.80;3.67;;;;;;;5.41;83.75;102062.13;5034688;28;20062;-73
2022/02/07 07:40:26;;;;;;;29.60;4.00;;;;;;;5.40;84.33;102063.03;5053199;28;20029;-71
2022/02/07 07:42:54;;;;;;;34.95;5.20;;;;;;;5.35;84.80;102069.47;5034816;28;20440;-73
2022/02/07 07:45:24;;;;;;;20.48;3.58;;;;;;;5.41;84.04;102076.69;5052896;28;20060;-73
2022/02/07 07:47:52;;;;;;;41.28;5.45;;;;;;;5.43;83.83;102074.81;5053299;28;20021;-72
2022/02/07 07:50:26;;;;;;;22.55;3.90;;;;;;;5.49;84.74;102084.56;5056235;28;20017;-73
2022/02/07 08:01:14;;;;;;;25.50;5.25;;;;;;;5.51;84.73;102097.28;5056093;28;20036;-70
2022/02/07 08:03:42;;;;;;;27.92;4.22;;;;;;;5.71;82.04;102119.59;5054284;28;20082;-73
2022/02/07 08:06:13;;;;;;;23.33;3.45;;;;;;;5.85;81.75;102118.50;5035987;28;20055;-71
2022/02/07 08:08:47;;;;;;;27.45;3.60;;;;;;;5.92;81.86;102121.38;5036640;28;20060;-73
2022/02/07 08:11:15;;;;;;;29.33;4.05;;;;;;;6.12;80.81;102120.59;5038033;28;20017;-73
2022/02/07 08:13:42;;;;;;;32.65;4.38;;;;;;;6.68;78.71;102130.53;5037954;28;20021;-74
2022/02/07 08:16:08;;;;;;;31.00;3.28;;;;;;;7.40;75.32;102108.97;5037624;28;20507;-73
2022/02/07 08:18:33;;;;;;;22.73;3.50;;;;;;;8.58;70.92;102115.66;5037858;28;20028;-73
2022/02/07 08:20:59;;;;;;;23.60;3.22;;;;;;;9.60;67.20;102128.41;5055672;28;20041;-73
2022/02/07 08:23:24;;;;;;;31.63;4.38;;;;;;;9.46;67.29;102121.97;5037622;28;20402;-72
2022/02/07 08:25:52;;;;;;;16.65;3.13;;;;;;;8.55;70.50;102129.63;5055376;28;20050;-73
2022/02/07 08:28:17;;;;;;;21.52;3.22;;;;;;;7.71;72.83;102136.34;5055060;28;20025;-71
2022/02/07 08:30:42;;;;;;;26.13;3.58;;;;;;;7.24;74.97;102127.47;5053123;28;20060;-71
2022/02/07 08:33:07;;;;;;;18.73;3.40;;;;;;;7.62;73.07;102143.09;5053477;28;20415;-70
2022/02/07 08:35:33;;;;;;;26.02;3.70;;;;;;;7.66;74.00;102150.44;5053366;28;20024;-70
2022/02/07 08:37:59;;;;;;;22.05;3.45;;;;;;;7.59;73.84;102154.47;5052260;28;20123;-73
2022/02/07 08:40:26;;;;;;;24.23;3.65;;;;;;;7.65;74.85;102155.69;5054044;28;20070;-72
2022/02/07 08:42:52;;;;;;;19.95;3.45;;;;;;;7.52;73.86;102140.53;5053953;28;20025;-72
2022/02/07 08:45:19;;;;;;;18.90;3.60;;;;;;;7.19;75.39;102169.94;5054442;28;20025;-73
2022/02/07 08:47:44;;;;;;;24.30;3.67;;;;;;;7.17;75.21;102177.81;5055399;28;20029;-74
2022/02/07 08:50:11;;;;;;;23.42;3.65;;;;;;;6.98;76.31;102182.88;5056156;28;20017;-73
2022/02/07 08:52:41;;;;;;;31.42;3.50;;;;;;;6.82;76.27;102198.75;5055133;28;20378;-74
2022/02/07 08:55:07;;;;;;;27.35;4.88;;;;;;;6.76;77.63;102197.50;5036955;28;20025;-72
2022/02/07 08:57:38;;;;;;;25.10;3.47;;;;;;;6.85;76.00;102207.94;5055139;28;20087;-73
2022/02/07 09:00:22;;;;;;;25.75;3.45;;;;;;;6.75;76.16;102221.56;5055081;28;20047;-73
2022/02/07 09:07:46;;;;;;;23.85;3.40;;;;;;;6.94;76.49;102235.47;5055050;28;20044;-73
2022/02/07 09:10:12;;;;;;;21.23;2.75;;;;;;;6.89;75.94;102242.75;5037060;28;20013;-71
2022/02/07 09:12:42;;;;;;;21.60;3.55;;;;;;;6.80;77.63;102246.06;5054599;28;20040;-71
2022/02/07 09:15:28;;;;;;;23.13;3.80;;;;;;;6.89;76.60;102245.31;5036381;28;20107;-73
2022/02/07 09:17:53;;;;;;;25.48;3.00;;;;;;;6.93;76.91;102255.22;5055400;28;20533;-73
2022/02/07 09:20:18;;;;;;;21.45;2.97;;;;;;;6.75;76.05;102252.38;5053706;28;20025;-70
2022/02/07 09:22:43;;;;;;;22.77;3.00;;;;;;;6.78;76.26;102256.47;5035625;28;20025;-73
2022/02/07 09:25:09;;;;;;;20.88;2.70;;;;;;;6.88;77.21;102269.41;5036890;28;20082;-73
2022/02/07 09:27:36;;;;;;;22.00;2.90;;;;;;;6.84;77.87;102275.72;5054696;28;20048;-74
2022/02/07 09:30:06;;;;;;;16.20;2.83;;;;;;;6.73;77.46;102285.13;5054772;28;20021;-73
2022/02/07 09:32:32;;;;;;;24.25;3.35;;;;;;;7.01;77.05;102288.78;5036232;28;20024;-72
2022/02/07 09:34:57;;;;;;;17.95;2.50;;;;;;;6.87;75.70;102289.13;5053742;28;20028;-72
2022/02/07 09:37:22;;;;;;;24.10;3.17;;;;;;;7.04;75.98;102300.59;5054297;28;20104;-72
2022/02/07 09:39:48;;;;;;;22.58;3.47;;;;;;;7.22;76.59;102299.09;5036699;28;20017;-73
2022/02/07 09:42:16;;;;;;;24.65;3.28;;;;;;;7.48;75.28;102301.22;5054316;28;20027;-73
2022/02/07 09:44:46;;;;;;;18.27;3.17;;;;;;;7.86;73.29;102313.41;5035575;28;20029;-71
2022/02/07 09:47:11;;;;;;;24.23;4.15;;;;;;;8.06;73.24;102313.47;5054072;28;20025;-74
2022/02/07 09:49:37;;;;;;;27.20;3.88;;;;;;;11.20;62.88;102320.38;5036380;28;20070;-73
2022/02/07 09:52:04;;;;;;;21.27;3.58;;;;;;;14.26;53.17;102332.06;5036282;28;20027;-73
2022/02/07 09:54:30;;;;;;;17.00;2.85;;;;;;;11.62;60.16;102329.94;5054600;28;20033;-73
2022/02/07 09:56:55;;;;;;;15.93;2.80;;;;;;;12.78;57.70;102345.56;5053926;28;20429;-73
2022/02/07 09:59:27;;;;;;;15.55;2.67;;;;;;;14.58;50.87;102344.84;5035927;28;20025;-74
2022/02/07 10:01:56;;;;;;;12.87;2.47;;;;;;;15.57;48.07;102334.25;5052427;28;20024;-72
2022/02/07 10:04:36;;;;;;;17.13;2.72;;;;;;;14.70;48.88;102340.03;5051365;28;20299;-71
2022/02/07 10:07:20;;;;;;;18.02;2.95;;;;;;;16.51;43.89;102344.66;5051264;28;20039;-73
2022/02/07 10:09:55;;;;;;;17.55;2.97;;;;;;;16.37;42.80;102348.97;5035264;28;20109;-74
2022/02/07 10:12:41;;;;;;;16.83;3.10;;;;;;;15.64;45.44;102348.16;5052764;28;20383;-71
2022/02/07 10:19:06;;;;;;;17.77;3.20;;;;;;;16.17;44.77;102367.03;5022649;28;20044;-74
2022/02/07 10:21:22;;;;;;;20.17;3.88;;;;;;;18.08;40.95;102367.66;5035889;28;20091;-73
2022/02/07 10:35:36;;;;;;;19.52;3.20;;;;;;;8.94;64.53;102400.19;5054417;28;20039;-73
2022/02/07 10:41:16;;;;;;;17.23;2.65;;;;;;;8.71;64.84;102393.69;5053950;28;20037;-74
2022/02/07 10:46:16;;;;;;;12.82;2.17;;;;;;;9.01;62.61;102385.81;5053599;28;20071;-73
2022/02/07 10:48:53;;;;;;;14.77;2.38;;;;;;;7.96;65.52;102406.09;5053260;28;20033;-74
2022/02/07 10:51:28;;;;;;;19.80;2.95;;;;;;;8.09;66.16;102408.47;5053820;28;20017;-73
2022/02/07 10:53:56;;;;;;;14.32;2.53;;;;;;;14.17;50.20;102404.13;5034679;28;20017;-71
2022/02/07 10:56:36;;;;;;;16.55;2.55;;;;;;;17.24;42.98;102401.88;5052918;28;20075;-73
2022/02/07 10:59:06;;;;;;;14.98;2.30;;;;;;;15.60;46.38;102426.88;5035246;28;20112;-73
2022/02/07 11:04:12;;;;;;;17.80;2.67;;;;;;;9.34;64.30;102425.00;5053499;28;20029;-74
2022/02/07 11:06:40;;;;;;;18.73;3.13;;;;;;;8.91;66.96;102428.03;5053385;28;20198;-72
2022/02/07 11:19:25;;;;;;;17.92;2.58;;;;;;;8.28;68.27;102441.97;5053215;28;20119;-73
2022/02/07 11:25:05;;;;;;;20.63;2.60;;;;;;;8.26;69.12;102449.03;5054641;28;20032;-72
2022/02/07 11:27:36;;;;;;;;;;;;;;;10.86;61.75;102441.88;5039440;28;20028;-73
2022/02/07 11:30:08;;;;;;;22.55;3.17;;;;;;;8.70;67.51;102446.19;5038980;28;20355;-72
2022/02/07 11:32:43;;;;;;;16.83;2.45;;;;;;;8.28;69.47;102441.16;5056744;28;20025;-73
2022/02/07 11:35:10;;;;;;;15.07;2.40;;;;;;;8.56;69.58;102445.63;5056809;28;20024;-73
2022/02/07 11:37:36;;;;;;;12.68;2.20;;;;;;;16.07;47.29;102434.31;5038821;28;20493;-74
2022/02/07 11:40:27;;;;;;;21.58;2.67;;;;;;;15.64;47.48;102428.94;5038647;28;20069;-71
2022/02/07 11:43:18;;;;;;;11.13;2.50;;;;;;;16.97;42.66;102433.00;5038826;28;20021;-73
2022/02/07 11:45:57;;;;;;;19.70;3.05;;;;;;;11.36;55.72;102433.53;5056529;28;20424;-72
2022/02/07 11:48:25;;;;;;;15.30;2.50;;;;;;;16.27;46.23;102441.56;5056802;28;20021;-73
2022/02/07 11:50:54;;;;;;;13.40;2.92;;;;;;;15.72;45.31;102439.31;5056475;28;20032;-73
2022/02/07 11:53:26;;;;;;;20.13;3.20;;;;;;;16.32;44.13;102439.22;5057003;28;20033;-73
2022/02/07 11:56:05;;;;;;;11.20;2.23;;;;;;;18.89;38.83;102430.38;5056405;28;20048;-73
2022/02/07 11:58:44;;;;;;;15.32;2.67;;;;;;;19.77;37.10;102414.28;5056907;28;20025;-73
2022/02/07 12:01:13;;;;;;;16.38;2.90;;;;;;;19.55;36.14;102437.31;5056245;28;20079;-73
2022/02/07 12:03:41;;;;;;;16.55;2.33;;;;;;;20.30;35.48;102428.94;5038359;28;20383;-73
2022/02/07 12:06:07;;;;;;;16.58;2.80;;;;;;;19.87;35.60;102440.06;5056089;28;20472;-74
2022/02/07 12:08:37;;;;;;;13.88;2.70;;;;;;;18.69;37.96;102450.47;5056092;28;20104;-74
2022/02/07 12:11:02;;;;;;;16.05;2.83;;;;;;;19.63;35.47;102445.97;5056182;28;20095;-74
2022/02/07 12:13:38;;;;;;;14.40;2.80;;;;;;;19.62;36.68;102447.78;5056548;28;20060;-74
2022/02/07 12:16:17;;;;;;;12.07;3.10;;;;;;;19.22;36.12;102449.69;5038148;28;20045;-74
2022/02/07 12:18:46;;;;;;;13.57;3.05;;;;;;;20.00;36.27;102445.25;5056575;28;20345;-74
2022/02/07 12:21:24;;;;;;;12.43;2.67;;;;;;;19.53;35.82;102459.50;5055839;28;20031;-74
2022/02/07 12:23:54;;;;;;;14.15;2.88;;;;;;;20.04;35.38;102456.13;5056479;28;20021;-74
2022/02/07 12:26:19;;;;;;;13.30;3.08;;;;;;;20.53;34.13;102461.75;5056028;28;20123;-73
2022/02/07 12:28:47;;;;;;;9.68;2.50;;;;;;;18.95;35.91;102457.56;5056304;28;20114;-74
2022/02/07 12:31:21;;;;;;;12.63;2.63;;;;;;;19.61;35.92;102459.28;5037866;28;20020;-74
2022/02/07 12:34:01;;;;;;;18.13;3.40;;;;;;;19.41;35.80;102455.91;5055786;28;20037;-74
2022/02/07 12:36:34;;;;;;;14.45;3.10;;;;;;;19.87;34.21;102455.00;5056019;28;20024;-74
2022/02/07 12:39:03;;;;;;;11.35;2.63;;;;;;;20.22;34.60;102474.59;5038248;28;20111;-74
2022/02/07 12:41:31;;;;;;;12.07;2.60;;;;;;;16.18;42.74;102488.63;5037794;28;20021;-73
2022/02/07 12:43:58;;;;;;;15.48;2.50;;;;;;;15.75;42.78;102479.84;5056424;28;20111;-72
2022/02/07 12:46:27;;;;;;;11.57;2.80;;;;;;;18.59;37.04;102452.69;5036349;28;20032;-73
2022/02/07 12:48:59;;;;;;;15.30;2.90;;;;;;;19.54;35.27;102482.09;5055509;28;20080;-73
2022/02/07 12:51:30;;;;;;;12.05;2.92;;;;;;;20.58;33.73;102462.72;5038616;28;20017;-74
2022/02/07 12:53:58;;;;;;;13.55;2.97;;;;;;;15.50;41.42;102485.25;5055788;28;20043;-75
2022/02/07 12:56:27;;;;;;;12.70;2.67;;;;;;;11.30;51.78;102484.09;5055851;28;20082;-74
2022/02/07 12:58:54;;;;;;;13.50;2.63;;;;;;;10.55;55.38;102487.94;5055138;28;20021;-72
2022/02/07 13:01:35;;;;;;;20.75;3.30;;;;;;;11.53;52.52;102479.25;5055017;28;20063;-74
2022/02/07 13:04:21;;;;;;;12.60;2.72;;;;;;;11.46;55.36;102482.63;5037377;28;20485;-74
2022/02/07 13:06:51;;;;;;;12.85;2.92;;;;;;;11.17;53.78;102488.88;5055089;28;20049;-74
2022/02/07 13:09:22;;;;;;;16.88;2.72;;;;;;;12.15;52.33;102504.25;5054413;28;20044;-73
2022/02/07 13:12:00;;;;;;;11.82;2.45;;;;;;;11.04;54.10;102509.94;5037062;28;20464;-74
2022/02/07 13:14:25;;;;;;;11.13;2.30;;;;;;;10.83;54.66;102520.56;5037032;28;20384;-74
2022/02/07 13:16:51;;;;;;;13.35;2.30;;;;;;;10.49;56.24;102514.38;5054651;28;20045;-72
2022/02/07 13:19:20;;;;;;;14.32;2.28;;;;;;;10.63;55.90;102519.06;5036754;28;20054;-73
2022/02/07 13:21:49;;;;;;;15.57;2.03;;;;;;;10.75;55.95;102532.59;5035496;28;20383;-73
2022/02/07 13:24:16;;;;;;;11.70;2.10;;;;;;;10.47;56.03;102519.69;5036793;28;20085;-74
2022/02/07 13:26:47;;;;;;;10.60;2.20;;;;;;;11.17;54.26;102519.94;5036089;28;20021;-72
2022/02/07 13:29:17;;;;;;;11.00;2.20;;;;;;;10.55;55.11;102509.41;5052532;28;20091;-72
2022/02/07 13:31:43;;;;;;;11.32;2.20;;;;;;;10.58;54.85;102510.91;5034480;28;20047;-72
2022/02/07 13:34:21;;;;;;;13.27;2.17;;;;;;;10.10;55.56;102507.56;5052368;28;20033;-73
2022/02/07 13:36:49;;;;;;;13.60;2.53;;;;;;;9.85;58.38;102513.34;5034454;28;20029;-71
2022/02/07 13:39:15;;;;;;;9.43;1.65;;;;;;;9.10;58.09;102523.44;5052244;28;20028;-72
2022/02/07 13:41:41;;;;;;;10.02;1.80;;;;;;;8.88;61.81;102534.81;5052506;28;20045;-72
2022/02/07 13:44:07;;;;;;;10.73;2.10;;;;;;;8.74;60.82;102530.03;5034630;28;20481;-74
2022/02/07 13:46:33;;;;;;;10.63;1.35;;;;;;;8.40;60.76;102522.63;5052739;28;20033;-71
2022/02/07 13:49:00;;;;;;;12.13;1.83;;;;;;;8.68;59.79;102523.63;5035014;28;20021;-74